Terminal Aerodrome Forecast
Issued by NWS

Home | Current Version | Previous Version | Text Only | Print | Product List | Glossary On
Versions: 1 2 3 4 5 6 7 8 9 10 11 12 13 14 15 16 17
000
FTUS43 KGLD 172335 CCA
TAFMCK
TAF COR
KMCK 172335Z 1800/1824 17009KT P6SM SKC
     FM180100 17006KT P6SM VCTS FEW090CB FEW200
      TEMPO 1801/1803 -TSRA
     FM180400 18007KT P6SM FEW090 SCT200
     FM180700 21006KT P6SM FEW090 FEW200 WS020/21040KT
     FM180900 24004KT P6SM FEW090 FEW200
     FM181300 31005KT P6SM FEW090 FEW200=

USA.gov is the U.S. government's official web portal to all federal, state and local government web resources and services.